createdAt,value
2023-03-06T00:00:58.843Z,12.02
2023-03-06T00:04:01.565Z,13.77
2023-03-06T00:07:04.408Z,12.43
2023-03-06T00:10:07.679Z,13.02
2023-03-06T00:13:13.332Z,12.45
2023-03-06T00:16:16.205Z,13.23
2023-03-06T00:19:19.950Z,15.13
2023-03-06T00:22:22.940Z,14.10
2023-03-06T00:25:25.819Z,14.77
2023-03-06T00:28:31.526Z,13.27
2023-03-06T00:31:36.007Z,15.98
2023-03-06T00:34:39.826Z,14.07
2023-03-06T00:37:45.015Z,15.55
2023-03-06T00:40:48.389Z,14.40
2023-03-06T00:43:51.199Z,18.98
2023-03-06T00:46:53.947Z,18.80
2023-03-06T00:49:56.931Z,15.82
2023-03-06T00:52:59.697Z,15.68
2023-03-06T00:56:02.434Z,17.12
2023-03-06T00:59:05.541Z,14.45
2023-03-06T01:02:09.197Z,16.70
2023-03-06T01:05:14.726Z,15.20
2023-03-06T01:08:17.844Z,15.65
2023-03-06T01:11:21.843Z,17.02
2023-03-06T01:14:24.968Z,17.73
2023-03-06T01:17:27.786Z,16.35
2023-03-06T01:20:31.349Z,18.42
2023-03-06T01:23:35.029Z,14.70
2023-03-06T01:26:38.073Z,15.07
2023-03-06T01:29:41.624Z,15.63
2023-03-06T01:32:44.429Z,16.62
2023-03-06T01:35:47.720Z,14.70
2023-03-06T01:38:52.296Z,15.77
2023-03-06T01:41:55.556Z,15.20
2023-03-06T01:45:09.622Z,16.23
2023-03-06T01:48:13.827Z,19.10
2023-03-06T01:51:17.148Z,22.02
2023-03-06T01:54:38.086Z,15.93
2023-03-06T01:57:45.138Z,20.83
2023-03-06T02:00:48.081Z,19.10
2023-03-06T02:03:51.554Z,17.98
2023-03-06T02:06:54.514Z,14.48
2023-03-06T02:09:59.822Z,15.27
2023-03-06T02:13:04.981Z,14.27
2023-03-06T02:16:09.621Z,14.38
2023-03-06T02:19:30.391Z,15.45
2023-03-06T02:22:49.711Z,14.05
2023-03-06T02:25:53.805Z,11.48
2023-03-06T02:28:59.216Z,12.63
2023-03-06T02:32:02.764Z,14.20
2023-03-06T02:35:07.172Z,11.18
2023-03-06T02:38:13.654Z,13.18
2023-03-06T02:41:17.609Z,12.00
2023-03-06T02:44:23.077Z,12.05
2023-03-06T02:47:26.096Z,10.05
2023-03-06T02:50:30.654Z,12.15
2023-03-06T02:53:33.397Z,15.80
2023-03-06T02:56:36.119Z,11.73
2023-03-06T02:59:39.046Z,10.90
2023-03-06T03:02:42.841Z,12.45
2023-03-06T03:05:45.522Z,12.20
2023-03-06T03:08:49.994Z,13.87
2023-03-06T03:11:53.632Z,11.95
2023-03-06T03:14:56.874Z,12.68
2023-03-06T03:17:59.909Z,12.75
2023-03-06T03:21:08.064Z,11.00
2023-03-06T03:24:10.714Z,12.50
2023-03-06T03:27:14.177Z,13.45
2023-03-06T03:30:17.932Z,16.50
2023-03-06T03:33:21.210Z,18.00
2023-03-06T03:36:24.609Z,36.93
2023-03-06T03:39:27.737Z,22.42
2023-03-06T03:42:30.694Z,20.98
2023-03-06T03:45:34.976Z,20.60
2023-03-06T03:48:38.818Z,18.57
2023-03-06T03:51:42.029Z,15.20
2023-03-06T03:54:45.526Z,19.73
2023-03-06T03:57:49.056Z,15.98
2023-03-06T04:00:52.038Z,14.52
2023-03-06T04:03:54.971Z,14.47
2023-03-06T04:07:01.065Z,14.20
2023-03-06T04:10:06.903Z,15.05
2023-03-06T04:13:11.003Z,13.52
2023-03-06T04:16:15.156Z,12.07
2023-03-06T04:19:19.287Z,17.48
2023-03-06T04:22:22.530Z,22.52
2023-03-06T04:25:25.020Z,16.20
2023-03-06T04:28:29.792Z,20.52
2023-03-06T04:31:34.254Z,23.53
2023-03-06T04:34:43.786Z,18.17
2023-03-06T04:37:46.858Z,20.12
2023-03-06T04:40:50.254Z,16.17
2023-03-06T04:43:54.007Z,18.07
2023-03-06T04:46:57.297Z,18.77
2023-03-06T04:50:01.665Z,25.15
2023-03-06T04:53:05.416Z,25.08
2023-03-06T04:56:08.728Z,21.98
2023-03-06T04:59:12.263Z,20.00
2023-03-06T05:02:14.829Z,21.00
2023-03-06T05:05:18.659Z,25.05
2023-03-06T05:08:28.832Z,18.80
2023-03-06T05:11:35.457Z,18.02
2023-03-06T05:14:38.373Z,18.77
2023-03-06T05:17:44.790Z,16.80
2023-03-06T05:20:49.053Z,17.92
2023-03-06T05:23:53.328Z,23.77
2023-03-06T05:26:56.139Z,20.40
2023-03-06T05:30:06.843Z,17.35
2023-03-06T05:33:12.757Z,20.27
2023-03-06T05:36:21.968Z,19.98
2023-03-06T05:39:26.158Z,20.12
2023-03-06T05:42:31.013Z,17.57
2023-03-06T05:45:37.425Z,18.80
2023-03-06T05:48:41.221Z,16.37
2023-03-06T05:51:45.484Z,15.93
2023-03-06T05:54:54.549Z,19.20
2023-03-06T05:57:58.564Z,25.60
2023-03-06T06:01:15.361Z,22.83
2023-03-06T06:04:18.755Z,24.12
2023-03-06T06:07:22.510Z,34.17
2023-03-06T06:10:26.375Z,45.17
2023-03-06T06:13:29.662Z,30.98
2023-03-06T06:16:32.908Z,46.97
2023-03-06T06:19:36.045Z,40.65
2023-03-06T06:22:39.937Z,41.17
2023-03-06T06:25:45.728Z,35.35
2023-03-06T06:28:55.023Z,42.25
2023-03-06T06:31:59.953Z,36.55
2023-03-06T06:35:06.119Z,45.43
2023-03-06T06:38:09.857Z,34.15
2023-03-06T06:44:40.777Z,22.80
2023-03-06T06:47:44.837Z,19.47
2023-03-06T06:50:56.030Z,26.00
2023-03-06T06:54:02.019Z,28.48
2023-03-06T06:57:05.182Z,32.22
2023-03-06T07:00:18.127Z,29.48
2023-03-06T07:03:25.009Z,22.90
2023-03-06T07:06:28.752Z,26.02
2023-03-06T07:09:31.926Z,28.90
2023-03-06T07:12:42.217Z,26.87
2023-03-06T07:15:45.632Z,23.35
2023-03-06T07:18:58.158Z,21.23
2023-03-06T07:22:13.073Z,23.40
2023-03-06T07:25:19.759Z,18.17
2023-03-06T07:28:27.174Z,19.62
2023-03-06T07:31:30.463Z,20.90
2023-03-06T07:34:34.914Z,26.42
2023-03-06T07:37:40.899Z,26.55
2023-03-06T07:40:48.730Z,22.70
2023-03-06T07:43:52.709Z,25.67
2023-03-06T07:46:58.993Z,28.00
2023-03-06T07:50:05.456Z,20.62
2023-03-06T07:53:10.816Z,17.02
2023-03-06T07:56:15.925Z,15.90
2023-03-06T07:59:19.461Z,17.33
2023-03-06T08:02:24.477Z,16.83
2023-03-06T08:05:28.980Z,17.52
2023-03-06T08:08:33.647Z,15.32
2023-03-06T08:11:37.936Z,15.63
2023-03-06T08:14:42.772Z,15.68
2023-03-06T08:17:48.984Z,15.37
2023-03-06T08:21:12.009Z,14.95
2023-03-06T08:24:17.684Z,14.43
2023-03-06T08:27:20.812Z,15.13
2023-03-06T08:30:31.487Z,15.40
2023-03-06T08:33:35.926Z,15.03
2023-03-06T08:36:40.223Z,16.12
2023-03-06T08:39:43.110Z,16.40
2023-03-06T08:42:49.913Z,14.00
2023-03-06T08:45:54.971Z,12.48
2023-03-06T08:49:00.398Z,12.10
2023-03-06T08:52:07.153Z,14.20
2023-03-06T08:55:13.262Z,13.75
2023-03-06T08:58:24.725Z,13.62
2023-03-06T09:01:31.002Z,12.75
2023-03-06T09:04:38.116Z,13.47
2023-03-06T09:07:45.096Z,15.43
2023-03-06T09:10:49.377Z,13.93
2023-03-06T09:13:54.280Z,14.80
2023-03-06T09:16:57.161Z,14.50
2023-03-06T09:20:00.245Z,13.70
2023-03-06T09:23:06.695Z,14.45
2023-03-06T09:26:12.647Z,17.85
2023-03-06T09:29:17.144Z,13.77
2023-03-06T09:32:23.019Z,13.80
2023-03-06T09:35:28.615Z,16.33
2023-03-06T09:38:32.942Z,18.25
2023-03-06T09:41:40.540Z,14.48
2023-03-06T09:44:50.746Z,19.80
2023-03-06T09:48:17.169Z,15.85
2023-03-06T09:51:48.385Z,20.23
2023-03-06T09:55:01.084Z,18.55
2023-03-06T09:58:24.874Z,19.58
2023-03-06T10:01:33.312Z,16.37
2023-03-06T10:04:50.929Z,23.55
2023-03-06T10:08:03.567Z,18.67
2023-03-06T10:11:12.439Z,19.92
2023-03-06T10:14:40.775Z,16.23
2023-03-06T10:17:50.658Z,18.60
2023-03-06T10:21:18.717Z,15.18
2023-03-06T10:24:53.948Z,16.47
2023-03-06T10:28:02.385Z,14.30
2023-03-06T10:31:23.317Z,14.45
2023-03-06T10:34:33.392Z,20.88
2023-03-06T10:37:38.137Z,20.25
2023-03-06T10:40:53.824Z,23.77
2023-03-06T10:44:01.259Z,18.25
2023-03-06T10:47:30.658Z,15.82
2023-03-06T10:50:34.926Z,17.45
2023-03-06T10:53:51.658Z,15.15
2023-03-06T10:56:56.130Z,14.17
2023-03-06T11:00:07.865Z,16.17
2023-03-06T11:03:21.156Z,13.62
2023-03-06T11:06:35.683Z,14.73
2023-03-06T11:09:39.631Z,14.32
2023-03-06T11:13:00.616Z,14.20
2023-03-06T11:16:26.987Z,16.92
2023-03-06T11:19:33.054Z,13.43
2023-03-06T11:22:40.029Z,14.70
2023-03-06T11:25:50.701Z,16.23
2023-03-06T11:29:04.467Z,15.47
2023-03-06T11:32:15.352Z,13.62
2023-03-06T11:35:25.996Z,14.87
2023-03-06T11:38:53.884Z,14.40
2023-03-06T11:42:24.703Z,13.00
2023-03-06T11:45:36.692Z,13.73
2023-03-06T11:48:49.949Z,14.85
2023-03-06T11:52:01.596Z,13.82
2023-03-06T11:55:04.989Z,14.82
2023-03-06T11:58:33.458Z,14.23
2023-03-06T12:02:21.756Z,15.40
2023-03-06T12:05:37.768Z,11.73
2023-03-06T12:09:04.537Z,12.73
2023-03-06T12:12:21.070Z,17.33
2023-03-06T12:15:51.718Z,13.35
2023-03-06T12:19:09.662Z,15.57
2023-03-06T12:22:57.656Z,13.60
2023-03-06T12:27:12.718Z,14.60
2023-03-06T12:30:16.851Z,13.50
2023-03-06T12:33:33.902Z,13.52
2023-03-06T12:36:59.725Z,13.73
2023-03-06T12:40:29.673Z,19.58
2023-03-06T12:43:58.878Z,14.73
2023-03-06T12:47:12.893Z,19.50
2023-03-06T12:50:40.228Z,19.08
2023-03-06T12:53:45.585Z,15.53
2023-03-06T12:56:55.553Z,14.52
2023-03-06T13:00:01.889Z,21.95
2023-03-06T13:03:20.480Z,62.75
2023-03-06T13:06:50.743Z,32.45
2023-03-06T13:10:33.913Z,18.40
2023-03-06T13:13:48.947Z,19.02
2023-03-06T13:16:52.704Z,22.20
2023-03-06T13:20:15.236Z,21.33
2023-03-06T13:23:30.287Z,17.42
2023-03-06T13:26:39.740Z,19.37
2023-03-06T13:29:50.852Z,18.70
2023-03-06T13:32:54.907Z,27.25
2023-03-06T13:36:00.512Z,19.35
2023-03-06T13:39:16.000Z,18.55
2023-03-06T13:42:28.701Z,18.17
2023-03-06T13:45:53.673Z,24.10
2023-03-06T13:49:10.921Z,22.00
2023-03-06T13:52:39.946Z,17.83
2023-03-06T13:55:56.173Z,23.65
2023-03-06T13:59:18.653Z,24.03
2023-03-06T14:03:17.895Z,23.50
2023-03-06T14:06:34.889Z,23.75
2023-03-06T14:09:47.690Z,26.85
2023-03-06T14:13:05.769Z,25.02
2023-03-06T14:16:27.782Z,22.43
2023-03-06T14:19:45.699Z,25.83
2023-03-06T14:23:24.714Z,22.77
2023-03-06T14:26:40.605Z,21.73
2023-03-06T14:29:48.793Z,24.23
2023-03-06T14:32:56.146Z,26.03
2023-03-06T14:36:13.763Z,23.38
2023-03-06T14:39:33.513Z,23.38
2023-03-06T14:42:44.329Z,27.98
2023-03-06T14:46:00.874Z,26.55
2023-03-06T14:49:23.617Z,24.23
2023-03-06T14:52:43.619Z,24.42
2023-03-06T14:56:06.684Z,21.85
2023-03-06T14:59:17.697Z,26.85
2023-03-06T15:02:26.967Z,33.78
2023-03-06T15:05:45.050Z,25.30
2023-03-06T15:09:13.865Z,28.35
2023-03-06T15:12:34.056Z,42.42
2023-03-06T15:16:06.611Z,38.97
2023-03-06T15:19:21.002Z,48.75
2023-03-06T15:22:44.935Z,33.50
2023-03-06T15:25:55.125Z,38.35
2023-03-06T15:29:17.564Z,52.58
2023-03-06T15:32:42.735Z,48.50
2023-03-06T15:36:05.836Z,59.08
2023-03-06T15:39:36.630Z,41.30
2023-03-06T15:42:49.708Z,29.50
2023-03-06T15:46:00.165Z,31.55
2023-03-06T15:49:06.716Z,27.73
2023-03-06T15:52:11.914Z,27.42
2023-03-06T15:55:17.207Z,29.30
2023-03-06T15:58:35.657Z,26.58
2023-03-06T16:01:46.703Z,30.20
2023-03-06T16:04:51.677Z,28.90
2023-03-06T16:08:05.691Z,36.20
2023-03-06T16:11:26.033Z,28.67
2023-03-06T16:14:34.758Z,29.33
2023-03-06T16:17:45.605Z,25.92
2023-03-06T16:20:49.676Z,35.60
2023-03-06T16:24:02.703Z,26.35
2023-03-06T16:27:25.686Z,34.50
2023-03-06T16:30:34.710Z,29.20
2023-03-06T16:33:43.149Z,28.70
2023-03-06T16:36:49.756Z,30.98
2023-03-06T16:39:54.646Z,36.38
2023-03-06T16:43:13.723Z,39.50
2023-03-06T16:46:24.748Z,36.63
2023-03-06T16:49:52.218Z,29.25
2023-03-06T16:53:01.957Z,27.85
2023-03-06T16:56:05.669Z,29.05
2023-03-06T16:59:16.044Z,28.63
2023-03-06T17:02:38.298Z,23.98
2023-03-06T17:05:49.978Z,24.25
2023-03-06T17:09:01.107Z,25.20
2023-03-06T17:12:07.781Z,26.92
2023-03-06T17:15:18.876Z,25.07
2023-03-06T17:18:33.547Z,23.33
2023-03-06T17:21:50.816Z,24.17
2023-03-06T17:24:56.696Z,23.75
2023-03-06T17:28:07.708Z,22.62
2023-03-06T17:31:27.702Z,20.43
2023-03-06T17:34:38.719Z,26.23
2023-03-06T17:37:42.790Z,28.87
2023-03-06T17:40:52.781Z,24.58
2023-03-06T17:43:57.893Z,27.27
2023-03-06T17:47:08.733Z,23.95
2023-03-06T17:50:26.619Z,25.70
2023-03-06T17:53:39.324Z,24.50
2023-03-06T17:56:52.671Z,28.52
2023-03-06T18:00:06.190Z,25.73
2023-03-06T18:03:21.299Z,27.98
2023-03-06T18:06:36.670Z,27.13
2023-03-06T18:09:44.913Z,30.42
2023-03-06T18:13:03.571Z,26.73
2023-03-06T18:16:09.034Z,29.33
2023-03-06T18:19:28.857Z,31.35
2023-03-06T18:22:39.970Z,25.07
2023-03-06T18:25:47.854Z,36.33
2023-03-06T18:29:01.771Z,32.97
2023-03-06T18:32:11.759Z,30.05
2023-03-06T18:35:18.968Z,23.33
2023-03-06T18:38:30.817Z,24.77
2023-03-06T18:41:38.871Z,27.50
2023-03-06T18:44:48.230Z,27.83
2023-03-06T18:48:02.667Z,29.40
2023-03-06T18:51:10.964Z,31.70
2023-03-06T18:54:21.961Z,41.37
2023-03-06T18:57:32.007Z,30.45
2023-03-06T19:00:50.752Z,30.27
2023-03-06T19:03:56.835Z,25.12
2023-03-06T19:07:02.967Z,24.83
2023-03-06T19:10:13.307Z,26.73
2023-03-06T19:13:21.695Z,25.88
2023-03-06T19:16:27.628Z,24.33
2023-03-06T19:19:31.222Z,30.25
2023-03-06T19:22:35.500Z,28.17
2023-03-06T19:25:59.043Z,31.90
2023-03-06T19:29:01.950Z,30.88
2023-03-06T19:32:11.770Z,28.62
2023-03-06T19:35:16.822Z,32.90
2023-03-06T19:38:22.023Z,31.98
2023-03-06T19:41:28.148Z,34.97
2023-03-06T19:44:33.826Z,29.27
2023-03-06T19:47:39.698Z,30.42
2023-03-06T19:50:50.247Z,29.85
2023-03-06T19:54:00.975Z,28.42
2023-03-06T19:57:09.726Z,29.00
2023-03-06T20:00:16.712Z,28.92
2023-03-06T20:03:25.713Z,30.50
2023-03-06T20:06:40.644Z,30.30
2023-03-06T20:10:01.212Z,32.53
2023-03-06T20:13:06.621Z,30.10
2023-03-06T20:16:17.554Z,32.45
2023-03-06T20:19:23.129Z,32.05
2023-03-06T20:22:40.537Z,33.45
2023-03-06T20:25:49.581Z,35.50
2023-03-06T20:29:05.335Z,30.62
2023-03-06T20:32:10.644Z,37.33
2023-03-06T20:35:19.233Z,32.40
2023-03-06T20:38:32.583Z,37.33
2023-03-06T20:41:46.938Z,33.37
2023-03-06T20:44:51.111Z,36.45
2023-03-06T20:47:56.395Z,39.42
2023-03-06T20:51:09.684Z,37.63
2023-03-06T20:54:17.658Z,35.10
2023-03-06T20:57:21.590Z,39.63
2023-03-06T21:00:26.017Z,38.80
2023-03-06T21:03:32.909Z,37.50
2023-03-06T21:06:44.535Z,42.65
2023-03-06T21:09:59.105Z,45.78
2023-03-06T21:13:04.626Z,38.87
2023-03-06T21:16:14.423Z,38.53
2023-03-06T21:19:20.229Z,39.22
2023-03-06T21:22:24.951Z,38.28
2023-03-06T21:25:29.581Z,40.92
2023-03-06T21:28:36.626Z,35.57
2023-03-06T21:31:43.037Z,32.03
2023-03-06T21:34:48.808Z,38.47
2023-03-06T21:37:53.133Z,32.30
2023-03-06T21:41:08.153Z,37.63
2023-03-06T21:44:12.611Z,39.80
2023-03-06T21:47:15.350Z,42.03
2023-03-06T21:50:19.797Z,36.13
2023-03-06T21:53:23.241Z,35.97
2023-03-06T21:56:33.776Z,39.28
2023-03-06T21:59:43.825Z,35.00
2023-03-06T22:02:52.624Z,36.70
2023-03-06T22:06:17.732Z,37.17
2023-03-06T22:09:20.392Z,35.20
2023-03-06T22:12:25.373Z,36.28
2023-03-06T22:15:29.140Z,36.17
2023-03-06T22:18:35.580Z,33.05
2023-03-06T22:21:39.273Z,36.17
2023-03-06T22:24:54.515Z,41.72
2023-03-06T22:27:59.305Z,44.60
2023-03-06T22:31:11.404Z,37.27
2023-03-06T22:34:15.570Z,38.58
2023-03-06T22:37:18.999Z,40.15
2023-03-06T22:40:23.268Z,44.80
2023-03-06T22:43:26.365Z,43.00
2023-03-06T22:46:31.942Z,45.40
2023-03-06T22:49:37.628Z,46.47
2023-03-06T22:52:41.692Z,45.70
2023-03-06T22:55:46.620Z,42.92
2023-03-06T22:58:50.114Z,47.47
2023-03-06T23:01:53.141Z,42.27
2023-03-06T23:04:56.225Z,43.28
2023-03-06T23:07:59.600Z,42.33
2023-03-06T23:11:02.371Z,42.90
2023-03-06T23:14:24.294Z,51.75
2023-03-06T23:17:45.705Z,44.97
2023-03-06T23:21:15.446Z,49.05
2023-03-06T23:24:36.717Z,54.85
2023-03-06T23:27:41.118Z,77.37
2023-03-06T23:30:44.208Z,60.50
2023-03-06T23:33:47.341Z,62.07
2023-03-06T23:36:50.101Z,65.10
2023-03-06T23:39:55.568Z,65.35
2023-03-06T23:42:59.131Z,60.40
2023-03-06T23:46:02.432Z,52.70
2023-03-06T23:49:07.476Z,49.38
2023-03-06T23:52:10.414Z,51.47
2023-03-06T23:55:13.551Z,46.25
2023-03-06T23:58:18.928Z,44.15
